Time;durP1;ratioP1;P1;durP2;ratioP2;P2;SDS_P1;SDS_P2;PMS_P1;PMS_P2;Temp;Humidity;BMP_temperature;BMP_pressure;BME280_temperature;BME280_humidity;BME280_pressure;Samples;Min_cycle;Max_cycle;Signal;HPM_P1;HPM_P2
2021/05/06 00:33:21;;;;;;;2.07;1.30;;;7.20;73.10;;;;;;5053810;28;20279;-79
2021/05/06 00:35:48;;;;;;;1.90;1.20;;;7.20;75.50;;;;;;5052873;28;20625;-81
2021/05/06 00:38:17;;;;;;;1.63;1.10;;;7.20;72.20;;;;;;5054045;28;20192;-80
2021/05/06 00:43:29;;;;;;;1.93;1.23;;;7.10;69.40;;;;;;5053972;28;20236;-79
2021/05/06 00:56:52;;;;;;;2.33;1.30;;;7.20;66.90;;;;;;5053857;28;20196;-80
2021/05/06 01:07:26;;;;;;;3.93;1.30;;;7.10;72.00;;;;;;5053741;28;20172;-80
2021/05/06 01:12:19;;;;;;;3.73;1.60;;;7.00;75.30;;;;;;5053602;28;20212;-79
2021/05/06 01:14:45;;;;;;;3.80;1.73;;;7.00;73.80;;;;;;5069089;28;20192;-80
2021/05/06 01:17:11;;;;;;;2.57;1.83;;;7.00;76.30;;;;;;5052116;28;20169;-79
2021/05/06 01:19:37;;;;;;;5.40;1.77;;;7.00;74.50;;;;;;5051690;28;20538;-79
2021/05/06 01:22:04;;;;;;;3.70;1.50;;;7.00;72.00;;;;;;5053215;28;20641;-78
2021/05/06 01:24:30;;;;;;;3.57;1.97;;;7.00;72.60;;;;;;5051437;28;20784;-81
2021/05/06 01:27:07;;;;;;;5.10;1.43;;;6.90;74.80;;;;;;5051795;28;20175;-81
2021/05/06 01:29:47;;;;;;;4.90;1.60;;;7.00;71.80;;;;;;5051543;28;20168;-80
2021/05/06 01:32:25;;;;;;;5.03;1.80;;;6.90;74.30;;;;;;5051791;28;20173;-79
2021/05/06 01:35:00;;;;;;;3.50;1.80;;;6.80;80.50;;;;;;5051234;28;20185;-80
2021/05/06 01:40:13;;;;;;;4.17;2.03;;;6.80;79.90;;;;;;5052996;28;20633;-80
2021/05/06 01:42:47;;;;;;;3.10;1.73;;;6.80;78.00;;;;;;5051765;28;20204;-80
2021/05/06 01:48:11;;;;;;;2.67;1.70;;;6.90;70.00;;;;;;5053088;28;20187;-80
2021/05/06 01:51:15;;;;;;;3.40;1.70;;;6.80;72.10;;;;;;5051425;28;20218;-79
2021/05/06 01:59:19;;;;;;;3.87;1.70;;;6.70;83.90;;;;;;5053106;28;20191;-80
2021/05/06 02:01:46;;;;;;;4.57;2.03;;;6.70;84.50;;;;;;5052744;28;20200;-78
2021/05/06 02:04:11;;;;;;;4.83;2.10;;;6.80;84.30;;;;;;5052476;28;20220;-79
2021/05/06 02:06:37;;;;;;;6.80;2.10;;;6.80;82.30;;;;;;5052511;28;20196;-80
2021/05/06 02:09:03;;;;;;;3.10;1.53;;;6.80;82.50;;;;;;5051370;28;20176;-80
2021/05/06 02:11:29;;;;;;;4.93;2.17;;;6.80;83.70;;;;;;5051512;28;20542;-79
2021/05/06 02:13:56;;;;;;;3.37;1.80;;;6.70;84.90;;;;;;5052811;28;20187;-80
2021/05/06 02:16:33;;;;;;;5.27;2.37;;;6.70;86.50;;;;;;5052647;28;20239;-79
2021/05/06 02:18:59;;;;;;;5.00;2.00;;;6.80;88.00;;;;;;5051323;28;20208;-80
2021/05/06 02:21:24;;;;;;;3.53;1.90;;;6.80;86.50;;;;;;5051061;28;20694;-79
2021/05/06 02:23:50;;;;;;;4.07;2.33;;;6.90;84.10;;;;;;5051329;28;20208;-79
2021/05/06 02:26:16;;;;;;;4.23;2.07;;;6.90;82.70;;;;;;5068701;28;20264;-80
2021/05/06 02:28:42;;;;;;;4.90;2.13;;;6.90;84.10;;;;;;5056322;28;20173;-80
2021/05/06 02:31:08;;;;;;;3.63;2.00;;;7.00;81.90;;;;;;5056281;28;20222;-79
2021/05/06 02:33:33;;;;;;;4.90;2.13;;;7.00;81.10;;;;;;5055017;28;20535;-80
2021/05/06 02:35:59;;;;;;;4.17;1.90;;;7.10;84.30;;;;;;5056062;28;20176;-80
2021/05/06 02:38:25;;;;;;;3.90;1.80;;;7.10;81.90;;;;;;5055218;28;20641;-79
2021/05/06 02:40:50;;;;;;;2.97;1.70;;;7.10;82.80;;;;;;5056147;28;20157;-79
2021/05/06 02:43:16;;;;;;;3.40;2.00;;;7.00;83.90;;;;;;5054955;28;20681;-80
2021/05/06 02:45:41;;;;;;;4.20;2.27;;;6.90;85.80;;;;;;5054856;28;20254;-78
2021/05/06 02:48:07;;;;;;;5.73;2.50;;;6.90;87.40;;;;;;5056339;28;20180;-79
2021/05/06 02:50:33;;;;;;;3.60;1.90;;;6.90;88.10;;;;;;5055651;28;20167;-80
2021/05/06 02:53:03;;;;;;;4.37;2.00;;;7.00;87.10;;;;;;5056144;28;20601;-80
2021/05/06 03:03:44;;;;;;;3.83;2.00;;;7.20;76.00;;;;;;5055771;28;20220;-80
2021/05/06 03:06:17;;;;;;;3.70;1.80;;;7.20;77.00;;;;;;5054459;28;20200;-80
2021/05/06 03:08:46;;;;;;;5.10;2.10;;;7.20;77.80;;;;;;5055819;28;20184;-80
2021/05/06 03:24:27;;;;;;;5.50;2.30;;;7.30;68.20;;;;;;5055210;28;20247;-79
2021/05/06 03:26:53;;;;;;;4.47;2.30;;;7.20;70.60;;;;;;5055305;28;20188;-79
2021/05/06 03:29:30;;;;;;;5.50;2.33;;;7.10;71.20;;;;;;5055345;28;20198;-79
2021/05/06 03:35:02;;;;;;;3.67;2.27;;;6.90;79.80;;;;;;5055049;28;20207;-79
2021/05/06 04:18:26;;;;;;;5.20;2.77;;;6.50;90.00;;;;;;5054307;28;20184;-79
2021/05/06 04:26:39;;;;;;;9.60;3.47;;;6.60;87.70;;;;;;5054295;28;20586;-81
2021/05/06 04:37:11;;;;;;;6.43;3.63;;;6.50;90.20;;;;;;5053878;28;20759;-79
2021/05/06 04:39:46;;;;;;;5.83;3.07;;;6.50;89.50;;;;;;5052516;28;20177;-78
2021/05/06 04:42:39;;;;;;;6.93;2.93;;;6.60;89.00;;;;;;5053860;28;20191;-80
2021/05/06 04:45:36;;;;;;;7.17;3.30;;;6.50;90.00;;;;;;5053645;28;20644;-79
2021/05/06 04:55:56;;;;;;;7.17;3.57;;;6.90;81.10;;;;;;5053502;28;20673;-81
2021/05/06 04:58:48;;;;;;;7.47;3.57;;;6.90;81.50;;;;;;5053215;28;20197;-80
2021/05/06 05:06:28;;;;;;;8.20;3.50;;;7.00;79.30;;;;;;5053844;28;20264;-79
2021/05/06 05:11:52;;;;;;;6.60;3.40;;;6.80;81.20;;;;;;5051554;28;20181;-81
2021/05/06 05:25:22;;;;;;;10.27;4.23;;;6.90;82.90;;;;;;5052814;28;20179;-78
2021/05/06 05:27:48;;;;;;;9.00;4.33;;;6.90;82.80;;;;;;5053211;28;20176;-80
2021/05/06 05:30:14;;;;;;;8.00;3.57;;;7.00;82.10;;;;;;5052477;28;20177;-79
2021/05/06 05:32:40;;;;;;;8.03;4.07;;;6.90;81.60;;;;;;5051567;28;20177;-80
2021/05/06 05:35:17;;;;;;;7.17;3.60;;;6.90;82.10;;;;;;5052287;28;20173;-80
2021/05/06 05:37:48;;;;;;;11.40;3.80;;;7.00;82.00;;;;;;5067780;28;20184;-78
2021/05/06 05:40:31;;;;;;;9.43;4.53;;;7.10;80.90;;;;;;5052387;28;20172;-77
2021/05/06 05:43:04;;;;;;;9.83;4.70;;;7.40;75.50;;;;;;5050423;28;20319;-79
2021/05/06 05:56:23;;;;;;;8.63;3.90;;;7.70;66.40;;;;;;5072268;28;20198;-81
2021/05/06 05:58:50;;;;;;;7.90;3.90;;;7.70;65.10;;;;;;5071547;28;20629;-82
2021/05/06 06:01:16;;;;;;;6.07;3.47;;;7.60;66.00;;;;;;5068248;28;20165;-79
2021/05/06 06:03:42;;;;;;;9.50;4.33;;;7.50;66.30;;;;;;5053885;28;20213;-81
2021/05/06 06:06:08;;;;;;;7.67;3.83;;;7.50;66.80;;;;;;5060417;28;20168;-80
2021/05/06 06:08:36;;;;;;;11.10;3.90;;;7.60;67.10;;;;;;5066053;28;20255;-80
2021/05/06 06:11:03;;;;;;;8.63;4.23;;;7.70;65.10;;;;;;5062790;28;20204;-80
2021/05/06 06:13:28;;;;;;;9.53;3.33;;;7.80;59.70;;;;;;5059064;28;20164;-79
2021/05/06 06:16:12;;;;;;;8.63;3.67;;;7.90;53.50;;;;;;5058920;28;20692;-81
2021/05/06 06:18:44;;;;;;;9.40;4.10;;;8.00;54.90;;;;;;5063760;28;20206;-82
2021/05/06 06:23:42;;;;;;;6.40;3.73;;;8.00;47.50;;;;;;5069010;28;20653;-81
2021/05/06 06:26:08;;;;;;;7.67;3.63;;;8.00;51.50;;;;;;5068283;28;20185;-80
2021/05/06 06:28:43;;;;;;;6.67;3.67;;;8.00;52.90;;;;;;5066067;28;20222;-79
2021/05/06 06:31:19;;;;;;;8.57;3.73;;;8.20;53.40;;;;;;5072881;28;20205;-80
2021/05/06 06:33:51;;;;;;;8.73;3.60;;;8.20;51.40;;;;;;5049474;28;20652;-81
2021/05/06 06:36:17;;;;;;;9.00;4.00;;;8.30;49.10;;;;;;5056163;28;20263;-80
2021/05/06 06:38:47;;;;;;;9.63;3.97;;;8.50;45.40;;;;;;5061494;28;20346;-80
2021/05/06 06:41:13;;;;;;;6.67;3.50;;;8.60;35.50;;;;;;5071230;28;20214;-80
2021/05/06 06:43:42;;;;;;;6.63;3.30;;;8.60;28.40;;;;;;5069413;28;20310;-80
2021/05/06 06:46:08;;;;;;;7.27;4.37;;;8.50;28.60;;;;;;5069448;28;20195;-81
2021/05/06 06:48:33;;;;;;;10.13;3.53;;;8.40;30.50;;;;;;5069747;28;20589;-80
2021/05/06 06:51:00;;;;;;;5.23;3.60;;;8.40;32.30;;;;;;5070850;28;20586;-79
2021/05/06 06:53:25;;;;;;;7.53;3.80;;;8.40;32.80;;;;;;5071730;28;20229;-81
2021/05/06 06:55:51;;;;;;;8.17;4.00;;;8.50;31.60;;;;;;5071347;28;20168;-80
2021/05/06 06:58:17;;;;;;;6.23;3.70;;;8.50;28.40;;;;;;5070388;28;20187;-81
2021/05/06 07:00:44;;;;;;;9.20;3.90;;;8.40;32.50;;;;;;5070416;28;20168;-79
2021/05/06 07:03:11;;;;;;;8.57;3.83;;;8.40;39.80;;;;;;5072318;28;20215;-82
2021/05/06 07:05:37;;;;;;;6.50;3.70;;;8.50;39.70;;;;;;5073010;28;20262;-80
2021/05/06 07:08:23;;;;;;;8.47;4.30;;;8.60;22.40;;;;;;5073350;28;20244;-81
2021/05/06 07:10:52;;;;;;;9.00;3.97;;;8.60;22.90;;;;;;5074805;28;20173;-83
2021/05/06 07:13:18;;;;;;;5.87;4.10;;;8.60;25.50;;;;;;5078627;28;20168;-81
2021/05/06 07:15:48;;;;;;;7.50;3.90;;;8.80;24.50;;;;;;5089165;28;20178;-81
2021/05/06 07:18:14;;;;;;;8.33;4.07;;;9.00;16.60;;;;;;5083691;28;20180;-81
2021/05/06 07:20:43;;;;;;;8.60;3.87;;;9.10;5.70;;;;;;5078288;28;20263;-80
2021/05/06 07:23:13;;;;;;;7.23;3.50;;;9.10;1.00;;;;;;5096950;28;20239;-80
2021/05/06 07:25:39;;;;;;;8.47;3.67;;;9.00;1.00;;;;;;5097872;28;20251;-81
2021/05/06 07:28:15;;;;;;;5.93;3.73;;;9.10;1.00;;;;;;5097874;28;20600;-80
2021/05/06 07:30:45;;;;;;;5.73;3.40;;;9.30;1.00;;;;;;5079823;28;20172;-80
2021/05/06 07:33:12;;;;;;;6.43;2.80;;;9.50;1.00;;;;;;5075543;28;20563;-80
2021/05/06 07:35:38;;;;;;;6.43;3.17;;;9.70;1.00;;;;;;5081170;28;20168;-80
2021/05/06 07:38:05;;;;;;;5.00;3.00;;;9.70;1.00;;;;;;5095912;28;20183;-80
2021/05/06 07:40:32;;;;;;;9.00;3.77;;;9.90;1.00;;;;;;5098341;28;20194;-83
2021/05/06 07:42:58;;;;;;;6.93;3.50;;;10.20;1.00;;;;;;5096298;28;20203;-81
2021/05/06 07:45:23;;;;;;;8.17;3.70;;;10.30;1.00;;;;;;5080899;28;20257;-81
2021/05/06 07:47:49;;;;;;;5.40;2.87;;;10.40;1.00;;;;;;5089182;28;20167;-82
2021/05/06 07:50:18;;;;;;;6.60;2.90;;;10.60;1.00;;;;;;5097584;28;20175;-81
2021/05/06 07:52:45;;;;;;;4.37;2.40;;;10.40;1.00;;;;;;5096438;28;20180;-82
2021/05/06 07:55:11;;;;;;;4.67;2.70;;;10.20;1.00;;;;;;5097116;28;20176;-82
2021/05/06 07:57:38;;;;;;;7.07;2.77;;;10.20;1.00;;;;;;5097168;28;20175;-81
2021/05/06 08:00:13;;;;;;;4.93;2.60;;;10.10;1.00;;;;;;5095836;28;20176;-81
2021/05/06 08:02:41;;;;;;;5.47;2.63;;;10.00;1.00;;;;;;5095295;28;20175;-79
2021/05/06 08:05:07;;;;;;;8.10;2.90;;;10.00;1.00;;;;;;5095173;28;20187;-83
2021/05/06 08:07:33;;;;;;;5.57;3.20;;;10.10;1.00;;;;;;5096180;28;20240;-81
2021/05/06 08:09:59;;;;;;;6.67;2.53;;;10.10;1.00;;;;;;5096458;28;20191;-81
2021/05/06 08:12:25;;;;;;;6.23;3.13;;;10.20;1.00;;;;;;5096692;28;20179;-82
2021/05/06 08:14:53;;;;;;;5.53;2.80;;;10.30;1.00;;;;;;5095939;28;20175;-81
2021/05/06 08:17:19;;;;;;;6.97;3.07;;;10.40;1.00;;;;;;5094699;28;20520;-81
2021/05/06 08:19:47;;;;;;;7.73;2.60;;;10.40;1.00;;;;;;5095541;28;20174;-81
2021/05/06 08:22:13;;;;;;;5.30;2.27;;;10.40;1.00;;;;;;5083535;28;20226;-82
2021/05/06 08:24:39;;;;;;;3.83;2.20;;;10.40;99.90;;;;;;5076608;28;20234;-84
2021/05/06 08:27:04;;;;;;;4.53;2.37;;;10.50;99.90;;;;;;5075386;28;20640;-82
2021/05/06 08:29:30;;;;;;;5.43;2.47;;;10.50;99.90;;;;;;5071762;28;20188;-81
2021/05/06 08:31:56;;;;;;;7.40;2.70;;;10.50;99.90;;;;;;5072633;28;20168;-81
2021/05/06 08:34:21;;;;;;;6.00;2.63;;;10.70;99.90;;;;;;5072817;28;20187;-82
2021/05/06 08:36:47;;;;;;;8.27;2.97;;;10.80;99.90;;;;;;5085652;28;20172;-82
2021/05/06 08:39:13;;;;;;;2.93;1.83;;;10.80;99.90;;;;;;5093127;28;20537;-82
2021/05/06 08:41:43;;;;;;;5.93;2.57;;;10.90;99.90;;;;;;5093286;28;20179;-83
2021/05/06 08:44:11;;;;;;;3.97;2.20;;;11.10;40.00;;;;;;5086344;28;20207;-83
2021/05/06 08:46:44;;;;;;;4.10;2.20;;;11.30;99.90;;;;;;5071668;28;20640;-83
2021/05/06 08:49:10;;;;;;;4.53;2.20;;;11.50;1.00;;;;;;5072642;28;20177;-84
2021/05/06 08:51:37;;;;;;;7.30;2.47;;;11.50;1.00;;;;;;5072134;28;20218;-83
2021/05/06 08:54:04;;;;;;;6.73;2.70;;;11.60;1.00;;;;;;5081992;28;20180;-84
2021/05/06 08:56:30;;;;;;;4.80;2.50;;;11.60;1.00;;;;;;5080410;28;20211;-83
2021/05/06 08:58:56;;;;;;;7.07;2.30;;;11.70;99.90;;;;;;5079100;28;20173;-79
2021/05/06 09:01:21;;;;;;;3.90;1.80;;;11.80;99.90;;;;;;5076621;28;20187;-83
2021/05/06 09:03:47;;;;;;;5.87;2.13;;;11.50;99.90;;;;;;5074379;28;20219;-82
2021/05/06 09:06:20;;;;;;;5.80;2.10;;;11.50;1.00;;;;;;5074235;28;20573;-81
2021/05/06 09:09:00;;;;;;;3.90;1.90;;;11.60;26.90;;;;;;5073313;28;20176;-82
2021/05/06 09:11:42;;;;;;;3.60;2.17;;;11.80;1.00;;;;;;5072860;28;20168;-82
2021/05/06 09:14:09;;;;;;;5.70;2.30;;;12.00;99.90;;;;;;5061554;28;20190;-83
2021/05/06 09:16:43;;;;;;;4.97;2.30;;;11.90;99.90;;;;;;5052087;28;20209;-81
2021/05/06 09:19:10;;;;;;;5.73;2.63;;;11.90;1.00;;;;;;5052967;28;20225;-83
2021/05/06 09:21:38;;;;;;;6.57;2.57;;;11.90;99.90;;;;;;5068464;28;20646;-83
2021/05/06 09:24:07;;;;;;;3.80;2.07;;;12.00;1.00;;;;;;5091301;28;20600;-83
2021/05/06 09:26:34;;;;;;;5.60;1.70;;;12.00;1.00;;;;;;5091230;28;20721;-82
2021/05/06 09:29:03;;;;;;;3.87;2.00;;;11.90;99.90;;;;;;5093251;28;20171;-82
2021/05/06 09:31:33;;;;;;;4.77;2.60;;;11.90;99.90;;;;;;5097876;28;20518;-81
2021/05/06 09:33:58;;;;;;;6.97;2.33;;;11.80;1.00;;;;;;5093951;28;20187;-81
2021/05/06 09:36:24;;;;;;;10.30;2.47;;;11.70;99.90;;;;;;5080951;28;20168;-82
2021/05/06 09:38:52;;;;;;;7.17;2.43;;;11.80;99.90;;;;;;5072009;28;20569;-81
2021/05/06 09:41:38;;;;;;;4.77;2.43;;;12.00;5.00;;;;;;5070840;28;20211;-82
2021/05/06 09:44:08;;;;;;;4.53;2.00;;;12.00;1.00;;;;;;5072095;28;20279;-85
2021/05/06 09:46:56;;;;;;;3.87;1.90;;;11.90;99.90;;;;;;5070839;28;20191;-82
2021/05/06 09:49:22;;;;;;;3.90;1.80;;;11.80;99.90;;;;;;5070340;28;20183;-83
2021/05/06 09:51:51;;;;;;;3.17;1.97;;;11.90;97.70;;;;;;5071206;28;20267;-83
2021/05/06 09:54:27;;;;;;;3.93;2.30;;;12.00;1.00;;;;;;5072321;28;20169;-83
2021/05/06 09:57:04;;;;;;;5.77;2.30;;;12.10;1.00;;;;;;5072691;28;20164;-82
2021/05/06 09:59:33;;;;;;;4.20;2.30;;;12.20;99.90;;;;;;5071590;28;20199;-83
2021/05/06 10:02:09;;;;;;;5.90;2.10;;;12.40;1.00;;;;;;5072574;28;20168;-81
2021/05/06 10:04:37;;;;;;;5.40;2.20;;;12.60;1.00;;;;;;5071676;28;20211;-82
2021/05/06 10:07:15;;;;;;;3.77;2.00;;;12.70;99.90;;;;;;5072412;28;20172;-82
2021/05/06 10:09:59;;;;;;;6.03;2.13;;;12.70;1.00;;;;;;5070557;28;20206;-81
2021/05/06 10:12:27;;;;;;;4.97;2.30;;;12.70;1.00;;;;;;5070814;28;20176;-82
2021/05/06 10:14:53;;;;;;;7.30;2.40;;;12.60;99.90;;;;;;5070563;28;20164;-83
2021/05/06 10:17:20;;;;;;;6.07;2.20;;;12.70;99.90;;;;;;5069411;28;20181;-81
2021/05/06 10:19:46;;;;;;;7.43;6.17;;;12.80;1.00;;;;;;5058405;28;20235;-81
2021/05/06 10:22:15;;;;;;;3.57;2.13;;;13.00;99.90;;;;;;5077781;28;20187;-84
2021/05/06 10:24:45;;;;;;;3.47;1.40;;;12.90;1.00;;;;;;5091415;28;20225;-81
2021/05/06 10:27:13;;;;;;;6.03;1.80;;;12.70;1.00;;;;;;5091971;28;20168;-81
2021/05/06 10:29:40;;;;;;;5.90;2.47;;;12.70;11.70;;;;;;5089947;28;20176;-81
2021/05/06 10:32:11;;;;;;;9.60;8.63;;;12.90;99.90;;;;;;5090408;28;20172;-80
2021/05/06 10:34:37;;;;;;;4.50;2.30;;;12.80;1.00;;;;;;5089854;28;20202;-83
2021/05/06 10:37:04;;;;;;;5.43;2.40;;;12.70;99.90;;;;;;5091849;28;20220;-84
2021/05/06 10:39:57;;;;;;;8.60;2.63;;;12.80;99.90;;;;;;5090781;28;20176;-82
2021/05/06 10:42:28;;;;;;;4.23;2.30;;;13.00;99.90;;;;;;5084749;28;20267;-81
2021/05/06 10:44:56;;;;;;;7.63;2.40;;;13.10;99.90;;;;;;5072083;28;20212;-81
2021/05/06 10:47:47;;;;;;;4.93;2.03;;;13.00;99.90;;;;;;5072801;28;20714;-83
2021/05/06 10:50:20;;;;;;;4.60;1.90;;;13.00;1.00;;;;;;5074808;28;20538;-83
2021/05/06 10:52:51;;;;;;;3.93;2.23;;;13.00;1.00;;;;;;5075976;28;20169;-82
2021/05/06 10:55:42;;;;;;;3.80;2.07;;;12.80;33.10;;;;;;5068515;28;20322;-81
2021/05/06 10:58:34;;;;;;;5.17;2.30;;;12.60;6.50;;;;;;5071735;28;20176;-82
2021/05/06 11:01:04;;;;;;;4.67;2.50;;;12.40;99.90;;;;;;5070430;28;20609;-82
2021/05/06 11:03:33;;;;;;;5.37;2.53;;;12.40;99.90;;;;;;5072318;28;20212;-81
2021/05/06 11:05:59;;;;;;;6.60;2.63;;;12.60;1.00;;;;;;5072935;28;20253;-81
2021/05/06 11:08:34;;;;;;;9.77;3.07;;;12.70;9.50;;;;;;5073770;28;20712;-83
2021/05/06 11:11:00;;;;;;;6.20;2.67;;;12.80;99.90;;;;;;5074550;28;20186;-82
2021/05/06 11:13:26;;;;;;;6.43;2.60;;;12.80;99.90;;;;;;5072921;28;20487;-82
2021/05/06 11:16:12;;;;;;;7.27;3.07;;;12.80;99.90;;;;;;5073000;28;20263;-82
2021/05/06 11:18:40;;;;;;;7.07;2.87;;;12.50;1.00;;;;;;5073817;28;20164;-82
2021/05/06 11:21:06;;;;;;;6.33;3.10;;;12.50;1.00;;;;;;5074197;28;20192;-84
2021/05/06 11:23:33;;;;;;;9.60;2.93;;;12.70;1.00;;;;;;5073899;28;20254;-83
2021/05/06 11:26:02;;;;;;;5.13;2.83;;;12.50;1.00;;;;;;5073747;28;20247;-82
2021/05/06 11:28:27;;;;;;;7.10;3.20;;;12.50;1.00;;;;;;5074425;28;20215;-81
2021/05/06 11:30:54;;;;;;;6.93;3.07;;;12.60;99.90;;;;;;5074602;28;20714;-82
2021/05/06 11:33:20;;;;;;;7.63;2.77;;;12.60;99.90;;;;;;5072548;28;20245;-82
2021/05/06 11:36:08;;;;;;;7.17;2.73;;;12.60;99.90;;;;;;5077452;28;20225;-81
2021/05/06 11:38:37;;;;;;;5.37;3.17;;;12.50;1.00;;;;;;5094521;28;20176;-80
2021/05/06 11:41:03;;;;;;;6.63;2.70;;;12.40;1.00;;;;;;5089657;28;20180;-82
2021/05/06 11:43:30;;;;;;;4.53;2.90;;;12.40;89.80;;;;;;5073951;28;20203;-81
2021/05/06 11:46:12;;;;;;;5.47;2.50;;;12.30;1.00;;;;;;5071712;28;20537;-80
2021/05/06 11:48:38;;;;;;;5.03;2.90;;;12.40;1.00;;;;;;5073489;28;20176;-81
2021/05/06 11:51:05;;;;;;;4.43;2.47;;;12.50;1.00;;;;;;5068237;28;20230;-81
2021/05/06 11:53:30;;;;;;;5.10;2.50;;;12.60;99.90;;;;;;5078695;28;20184;-80
2021/05/06 11:55:56;;;;;;;5.33;2.27;;;12.60;99.90;;;;;;5075657;28;20515;-82
2021/05/06 11:58:28;;;;;;;7.27;2.60;;;12.70;99.90;;;;;;5072532;28;20172;-82
2021/05/06 12:00:55;;;;;;;5.07;2.33;;;12.60;1.00;;;;;;5092616;28;20571;-81
2021/05/06 12:03:34;;;;;;;5.17;2.30;;;12.70;99.90;;;;;;5072492;28;20208;-79
2021/05/06 12:06:01;;;;;;;5.00;2.43;;;12.70;99.90;;;;;;5072968;28;20536;-82
2021/05/06 12:08:42;;;;;;;6.47;2.47;;;12.70;99.90;;;;;;5071906;28;20221;-82
2021/05/06 12:11:09;;;;;;;9.27;2.97;;;12.80;99.90;;;;;;5072041;28;20176;-81
2021/05/06 12:13:36;;;;;;;6.57;2.27;;;12.90;99.90;;;;;;5071893;28;20616;-81
2021/05/06 12:16:18;;;;;;;8.83;2.93;;;13.10;34.40;;;;;;5073232;28;20169;-81
2021/05/06 12:19:13;;;;;;;4.13;2.20;;;13.30;12.60;;;;;;5071594;28;20255;-81
2021/05/06 12:21:42;;;;;;;6.50;2.13;;;13.40;1.00;;;;;;5072131;28;20528;-81
2021/05/06 12:24:11;;;;;;;5.40;2.37;;;13.40;1.00;;;;;;5071057;28;20573;-82
2021/05/06 12:26:38;;;;;;;6.57;2.30;;;12.90;99.90;;;;;;5071018;28;20571;-81
2021/05/06 12:29:04;;;;;;;6.33;2.90;;;12.60;1.00;;;;;;5071363;28;20268;-81
2021/05/06 12:31:30;;;;;;;5.40;2.53;;;12.70;1.00;;;;;;5072876;28;20168;-81
2021/05/06 12:33:56;;;;;;;6.50;2.43;;;12.80;1.00;;;;;;5072444;28;20660;-81
2021/05/06 12:36:22;;;;;;;4.67;2.37;;;12.90;42.10;;;;;;5072478;28;20195;-81
2021/05/06 12:38:49;;;;;;;5.67;2.40;;;13.10;1.00;;;;;;5071220;28;20175;-81
2021/05/06 12:41:15;;;;;;;6.20;2.50;;;13.30;1.00;;;;;;5072186;28;20172;-80
2021/05/06 12:43:46;;;;;;;9.80;2.70;;;13.20;1.00;;;;;;5070813;28;20215;-82
2021/05/06 12:46:12;;;;;;;4.97;2.00;;;13.30;1.00;;;;;;5072031;28;20172;-81
2021/05/06 12:48:50;;;;;;;3.93;1.83;;;13.30;99.90;;;;;;5071705;28;20248;-81
2021/05/06 12:51:15;;;;;;;4.00;2.30;;;13.30;99.90;;;;;;5071716;28;20176;-81
2021/05/06 12:54:09;;;;;;;4.70;2.00;;;13.50;99.90;;;;;;5072122;28;20168;-80
2021/05/06 12:56:38;;;;;;;3.43;1.80;;;13.50;22.30;;;;;;5071573;28;20180;-81
2021/05/06 12:59:25;;;;;;;6.90;2.03;;;13.70;1.00;;;;;;5079962;28;20164;-82
2021/05/06 13:01:52;;;;;;;6.20;2.30;;;13.70;1.00;;;;;;5091081;28;20187;-81
2021/05/06 13:04:19;;;;;;;5.33;1.80;;;13.50;84.60;;;;;;5090802;28;20567;-82
2021/05/06 13:06:45;;;;;;;5.33;2.20;;;13.50;29.00;;;;;;5091956;28;20228;-81
2021/05/06 13:09:17;;;;;;;4.47;2.00;;;13.60;99.90;;;;;;5091358;28;20184;-82
2021/05/06 13:11:45;;;;;;;5.20;2.37;;;13.70;1.00;;;;;;5091005;28;20189;-81
2021/05/06 13:14:11;;;;;;;4.43;2.20;;;13.80;50.00;;;;;;5072888;28;20237;-82
2021/05/06 13:16:48;;;;;;;4.53;2.27;;;13.60;1.00;;;;;;5071035;28;20168;-81
2021/05/06 13:19:23;;;;;;;5.30;2.53;;;13.20;99.90;;;;;;5070770;28;22000;-81
2021/05/06 13:21:52;;;;;;;5.90;3.10;;;13.00;99.90;;;;;;5072325;28;20203;-81
2021/05/06 13:24:18;;;;;;;6.40;2.80;;;12.80;99.90;;;;;;5070356;28;20235;-81
2021/05/06 13:26:44;;;;;;;7.57;3.30;;;12.90;99.90;;;;;;5069500;28;20238;-80
2021/05/06 13:29:13;;;;;;;7.73;3.33;;;12.80;1.00;;;;;;5071229;28;20636;-81
2021/05/06 13:31:40;;;;;;;8.77;4.53;;;12.60;1.00;;;;;;5061694;28;20195;-81
2021/05/06 13:34:13;;;;;;;7.83;3.30;;;12.70;38.50;;;;;;5050624;28;20344;-82
2021/05/06 13:36:40;;;;;;;4.80;2.60;;;12.80;99.90;;;;;;5051257;28;20187;-81
2021/05/06 13:39:07;;;;;;;5.67;2.73;;;13.00;99.90;;;;;;5051853;28;20166;-81
2021/05/06 13:41:40;;;;;;;5.10;2.60;;;12.70;99.90;;;;;;5050459;28;20200;-81
2021/05/06 13:44:08;;;;;;;7.03;2.80;;;12.80;99.90;;;;;;5051344;28;20310;-81
2021/05/06 13:46:42;;;;;;;6.43;2.73;;;13.10;1.00;;;;;;5050590;28;20226;-81
2021/05/06 13:49:08;;;;;;;6.80;3.00;;;13.20;99.90;;;;;;5051599;28;20167;-81
2021/05/06 13:51:33;;;;;;;5.37;2.17;;;13.50;99.90;;;;;;5051498;28;20251;-81
2021/05/06 13:53:59;;;;;;;4.63;2.73;;;13.80;1.00;;;;;;5051628;28;20172;-81
2021/05/06 13:56:25;;;;;;;4.37;2.60;;;13.90;1.00;;;;;;5061674;28;20184;-81
2021/05/06 13:58:51;;;;;;;7.63;2.90;;;14.10;99.90;;;;;;5067499;28;20172;-80
2021/05/06 14:01:19;;;;;;;9.37;2.90;;;14.30;99.90;;;;;;5082782;28;20721;-80
2021/05/06 14:03:44;;;;;;;6.23;2.60;;;14.40;99.90;;;;;;5066661;28;20226;-82
2021/05/06 14:06:11;;;;;;;8.63;2.50;;;14.30;99.90;;;;;;5075287;28;20771;-82
2021/05/06 14:08:36;;;;;;;6.97;2.70;;;14.40;99.90;;;;;;5069964;28;20172;-82
2021/05/06 14:11:03;;;;;;;7.67;2.83;;;14.20;99.90;;;;;;5070191;28;20551;-81
2021/05/06 14:13:31;;;;;;;4.90;3.03;;;14.20;99.90;;;;;;5070508;28;20577;-80
2021/05/06 14:15:57;;;;;;;7.53;2.90;;;14.30;99.90;;;;;;5069947;28;20180;-81
2021/05/06 14:18:23;;;;;;;5.87;2.50;;;14.30;99.90;;;;;;5080289;28;20536;-81
2021/05/06 14:20:48;;;;;;;8.07;2.80;;;14.20;1.00;;;;;;5065360;28;20191;-80
2021/05/06 14:23:18;;;;;;;8.53;2.80;;;14.10;1.00;;;;;;5071810;28;20213;-82
2021/05/06 14:25:44;;;;;;;10.33;3.40;;;14.20;1.00;;;;;;5072376;28;20192;-82
2021/05/06 14:28:10;;;;;;;6.57;3.27;;;14.20;1.00;;;;;;5073162;28;20178;-81
2021/05/06 14:30:36;;;;;;;5.97;2.40;;;14.20;1.00;;;;;;5075360;28;20176;-81
2021/05/06 14:33:02;;;;;;;6.03;2.70;;;14.10;1.00;;;;;;5075429;28;20187;-82
2021/05/06 14:35:28;;;;;;;6.03;3.00;;;14.00;99.90;;;;;;5083859;28;20178;-81
2021/05/06 14:37:54;;;;;;;5.93;2.87;;;13.90;1.00;;;;;;5085542;28;20173;-82
2021/05/06 14:40:20;;;;;;;6.73;2.73;;;13.80;1.00;;;;;;5073121;28;20186;-81
2021/05/06 14:42:46;;;;;;;5.77;3.00;;;13.70;1.00;;;;;;5073396;28;20255;-81
2021/05/06 14:45:13;;;;;;;10.93;3.43;;;13.60;1.00;;;;;;5074136;28;20299;-81
2021/05/06 14:47:40;;;;;;;7.07;2.67;;;13.40;99.90;;;;;;5075698;28;20612;-82
2021/05/06 14:50:11;;;;;;;3.90;2.67;;;13.20;99.90;;;;;;5072031;28;20589;-81
2021/05/06 14:52:37;;;;;;;5.00;2.80;;;13.50;99.90;;;;;;5074401;28;20680;-80
2021/05/06 14:55:05;;;;;;;8.57;3.10;;;13.30;1.00;;;;;;5073782;28;20225;-80
2021/05/06 14:57:31;;;;;;;8.57;3.77;;;13.30;1.00;;;;;;5073592;28;20172;-80
2021/05/06 14:59:56;;;;;;;7.87;3.90;;;13.40;90.80;;;;;;5086506;28;20180;-81
2021/05/06 15:02:22;;;;;;;9.33;3.83;;;13.50;1.00;;;;;;5074147;28;20679;-80
2021/05/06 15:04:47;;;;;;;5.13;3.30;;;13.40;1.00;;;;;;5073926;28;20208;-80
2021/05/06 15:07:13;;;;;;;7.00;3.23;;;13.30;1.00;;;;;;5073657;28;20183;-82
2021/05/06 15:09:39;;;;;;;7.93;3.63;;;13.10;28.30;;;;;;5073837;28;20172;-81
2021/05/06 15:12:06;;;;;;;6.23;3.30;;;13.00;99.90;;;;;;5073383;28;20523;-81
2021/05/06 15:14:31;;;;;;;7.37;3.30;;;13.10;1.00;;;;;;5072275;28;20520;-80
2021/05/06 15:16:57;;;;;;;7.13;3.23;;;13.00;91.10;;;;;;5072795;28;20168;-80
2021/05/06 15:19:22;;;;;;;5.27;3.20;;;12.80;99.90;;;;;;5073948;28;20184;-80
2021/05/06 15:21:48;;;;;;;5.20;3.30;;;12.50;1.00;;;;;;5072377;28;20225;-81
2021/05/06 15:24:14;;;;;;;5.93;3.03;;;12.50;99.90;;;;;;5072326;28;20214;-79
2021/05/06 15:26:40;;;;;;;6.20;3.50;;;12.60;99.90;;;;;;5073838;28;20263;-81
2021/05/06 15:29:06;;;;;;;4.93;3.60;;;12.70;99.90;;;;;;5072507;28;20271;-80
2021/05/06 15:31:33;;;;;;;6.67;3.37;;;12.50;99.90;;;;;;5072132;28;20214;-81
2021/05/06 15:33:59;;;;;;;6.50;3.60;;;12.50;1.00;;;;;;5073383;28;20192;-80
2021/05/06 15:36:25;;;;;;;6.53;3.73;;;12.40;99.90;;;;;;5073426;28;20199;-81
2021/05/06 15:38:54;;;;;;;5.23;3.37;;;12.30;99.90;;;;;;5073060;28;20207;-80
2021/05/06 15:41:19;;;;;;;5.53;3.73;;;12.40;1.00;;;;;;5073519;28;20196;-83
2021/05/06 15:43:45;;;;;;;6.57;3.70;;;12.40;1.00;;;;;;5073295;28;20243;-81
2021/05/06 15:46:11;;;;;;;5.23;3.50;;;12.40;1.00;;;;;;5073720;28;20208;-79
2021/05/06 15:48:37;;;;;;;5.73;3.50;;;12.60;99.90;;;;;;5073378;28;20164;-81
2021/05/06 15:51:04;;;;;;;7.57;3.40;;;12.50;99.90;;;;;;5073712;28;20191;-79
2021/05/06 15:53:31;;;;;;;5.17;3.50;;;12.30;99.90;;;;;;5071656;28;20183;-79
2021/05/06 15:56:00;;;;;;;7.10;3.53;;;12.10;99.90;;;;;;5072430;28;20191;-79
2021/05/06 15:58:27;;;;;;;6.77;3.40;;;12.00;1.00;;;;;;5075833;28;20189;-80
2021/05/06 16:00:56;;;;;;;7.73;4.07;;;11.90;99.90;;;;;;5092476;28;20571;-79
2021/05/06 16:03:23;;;;;;;6.93;3.53;;;11.60;99.90;;;;;;5093128;28;20187;-80
2021/05/06 16:05:58;;;;;;;8.87;5.80;;;11.60;99.90;;;;;;5092116;28;20179;-81
2021/05/06 16:08:24;;;;;;;11.17;6.30;;;11.00;1.00;;;;;;5092436;28;20242;-79
2021/05/06 16:10:51;;;;;;;11.53;7.30;;;10.50;1.00;;;;;;5073868;28;20183;-82